Table Rock, Nebraska
Current Conditions -  °F | °C
As of 3:53 PM on Sunday 23 Nov 2014 (Local Time) from KFNB Reporting Station
Overcast Overcast  
Wind Chill:   Ceiling: 4400
Heat Index:   Visibility: 10mi
Dew Point:   Wind: 18mph
Humidity: 73%   Direction: 340°NNW
Pressure: 29.43"   Gusts: 29mph
Location:  40.18°N, 96.1°W
Report Text: KFNB 232153Z AUTO 34016G25KT 10SM OVC044 08/03 A2943 RMK AO2 PK WND 34027/2138 SLP967 T00780033
Loading
Personal Weather Stations






























Interactive Weather Map New forecast layout! Learn more

10-Day Weather Forecast

Advertisements
Track Severe Weather on mobile